createdAt,value
2017-06-18T00:00:08.313Z,17.80
2017-06-18T00:02:37.363Z,16.77
2017-06-18T00:05:05.613Z,15.63
2017-06-18T00:07:33.876Z,17.50
2017-06-18T00:10:02.148Z,18.17
2017-06-18T00:12:30.491Z,18.20
2017-06-18T00:14:58.850Z,16.87
2017-06-18T00:17:27.097Z,18.60
2017-06-18T00:19:55.394Z,17.37
2017-06-18T00:22:23.774Z,17.90
2017-06-18T00:24:52.117Z,17.57
2017-06-18T00:27:20.381Z,18.93
2017-06-18T00:29:49.389Z,17.23
2017-06-18T00:32:17.656Z,17.90
2017-06-18T00:34:45.912Z,16.97
2017-06-18T00:37:14.154Z,19.10
2017-06-18T00:39:42.430Z,17.80
2017-06-18T00:42:11.477Z,19.30
2017-06-18T00:44:39.747Z,17.50
2017-06-18T00:47:08.779Z,18.00
2017-06-18T00:49:37.054Z,18.03
2017-06-18T00:52:05.295Z,17.80
2017-06-18T00:54:33.542Z,18.70
2017-06-18T00:57:01.801Z,17.73
2017-06-18T00:59:30.035Z,17.03
2017-06-18T01:01:58.369Z,18.80
2017-06-18T01:04:26.633Z,17.37
2017-06-18T01:06:54.978Z,18.20
2017-06-18T01:09:23.229Z,19.67
2017-06-18T01:11:51.469Z,19.10
2017-06-18T01:14:19.849Z,18.03
2017-06-18T01:16:48.448Z,17.77
2017-06-18T01:19:17.580Z,17.47
2017-06-18T01:21:45.833Z,18.80
2017-06-18T01:24:14.104Z,18.60
2017-06-18T01:26:42.417Z,18.83
2017-06-18T01:29:10.666Z,20.10
2017-06-18T01:31:38.948Z,20.53
2017-06-18T01:34:07.212Z,20.20
2017-06-18T01:36:35.478Z,19.43
2017-06-18T01:39:04.485Z,21.03
2017-06-18T01:41:32.766Z,19.67
2017-06-18T01:44:01.486Z,19.70
2017-06-18T01:46:29.946Z,18.93
2017-06-18T01:48:58.231Z,18.10
2017-06-18T01:51:26.450Z,18.67
2017-06-18T01:53:55.488Z,20.70
2017-06-18T01:56:23.732Z,18.73
2017-06-18T01:58:52.064Z,19.13
2017-06-18T02:01:20.331Z,20.70
2017-06-18T02:03:48.597Z,21.23
2017-06-18T02:06:16.872Z,21.30
2017-06-18T02:08:45.213Z,19.97
2017-06-18T02:11:13.558Z,19.60
2017-06-18T02:13:41.902Z,20.03
2017-06-18T02:16:10.180Z,21.37
2017-06-18T02:18:38.440Z,21.77
2017-06-18T02:21:06.789Z,21.10
2017-06-18T02:23:35.805Z,19.70
2017-06-18T02:26:04.128Z,20.97
2017-06-18T02:28:32.471Z,21.23
2017-06-18T02:31:00.713Z,21.73
2017-06-18T02:33:29.030Z,21.10
2017-06-18T02:35:57.320Z,22.07
2017-06-18T02:38:25.561Z,20.50
2017-06-18T02:40:53.824Z,20.17
2017-06-18T02:43:22.131Z,21.87
2017-06-18T02:45:50.478Z,20.90
2017-06-18T02:48:18.733Z,21.17
2017-06-18T02:50:47.773Z,20.10
2017-06-18T02:53:16.073Z,21.90
2017-06-18T02:55:44.313Z,20.70
2017-06-18T02:58:12.586Z,22.30
2017-06-18T03:00:40.904Z,21.27
2017-06-18T03:03:09.150Z,22.97
2017-06-18T03:05:37.480Z,22.20
2017-06-18T03:08:05.717Z,21.83
2017-06-18T03:10:34.094Z,21.97
2017-06-18T03:13:02.461Z,22.87
2017-06-18T03:15:30.713Z,21.03
2017-06-18T03:17:58.962Z,21.27
2017-06-18T03:20:27.992Z,21.43
2017-06-18T03:23:01.956Z,20.80
2017-06-18T03:25:30.985Z,20.40
2017-06-18T03:27:59.284Z,19.90
2017-06-18T03:30:27.557Z,20.90
2017-06-18T03:32:55.932Z,20.57
2017-06-18T03:35:24.164Z,20.50
2017-06-18T03:37:52.509Z,21.77
2017-06-18T03:40:21.609Z,21.07
2017-06-18T03:42:49.888Z,21.67
2017-06-18T03:45:18.129Z,20.30
2017-06-18T03:47:46.377Z,21.50
2017-06-18T03:50:14.681Z,20.17
2017-06-18T03:52:42.989Z,21.30
2017-06-18T03:55:11.249Z,21.20
2017-06-18T03:57:39.617Z,20.57
2017-06-18T04:00:07.861Z,21.53
2017-06-18T04:02:36.123Z,21.10
2017-06-18T04:05:05.139Z,19.87
2017-06-18T04:07:33.397Z,18.67
2017-06-18T04:10:01.645Z,19.73
2017-06-18T04:12:29.909Z,18.40
2017-06-18T04:14:58.156Z,19.00
2017-06-18T04:17:26.529Z,20.20
2017-06-18T04:19:54.776Z,19.07
2017-06-18T04:22:23.111Z,19.10
2017-06-18T04:24:51.352Z,21.30
2017-06-18T04:27:19.595Z,17.90
2017-06-18T04:29:48.628Z,18.17
2017-06-18T04:32:16.868Z,20.40
2017-06-18T04:34:45.205Z,18.60
2017-06-18T04:37:13.559Z,18.90
2017-06-18T04:39:41.814Z,18.73
2017-06-18T04:42:10.073Z,17.73
2017-06-18T04:44:38.382Z,18.77
2017-06-18T04:47:06.632Z,18.83
2017-06-18T04:49:34.883Z,19.47
2017-06-18T04:52:03.140Z,19.67
2017-06-18T04:54:31.486Z,18.47
2017-06-18T04:56:59.738Z,20.20
2017-06-18T04:59:27.986Z,17.90
2017-06-18T05:01:56.353Z,17.30
2017-06-18T05:04:24.673Z,19.03
2017-06-18T05:06:52.965Z,17.80
2017-06-18T05:09:21.212Z,19.70
2017-06-18T05:11:49.475Z,18.47
2017-06-18T05:14:18.552Z,18.50
2017-06-18T05:16:46.907Z,19.10
2017-06-18T05:19:15.956Z,21.30
2017-06-18T05:21:44.261Z,18.47
2017-06-18T05:24:12.514Z,20.43
2017-06-18T05:26:40.895Z,17.63
2017-06-18T05:29:09.341Z,17.90
2017-06-18T05:31:37.664Z,18.33
2017-06-18T05:34:05.912Z,18.63
2017-06-18T05:36:34.161Z,18.20
2017-06-18T05:39:03.185Z,18.80
2017-06-18T05:41:31.529Z,18.60
2017-06-18T05:43:59.792Z,18.77
2017-06-18T05:46:28.052Z,19.77
2017-06-18T05:48:56.317Z,17.07
2017-06-18T05:51:25.602Z,18.60
2017-06-18T05:53:53.959Z,18.60
2017-06-18T05:56:22.273Z,17.03
2017-06-18T05:58:50.627Z,16.60
2017-06-18T06:01:18.929Z,16.87
2017-06-18T06:03:47.383Z,17.40
2017-06-18T06:06:15.745Z,16.03
2017-06-18T06:08:44.016Z,16.00
2017-06-18T06:11:12.328Z,15.47
2017-06-18T06:14:15.613Z,14.20
2017-06-18T06:16:43.861Z,13.73
2017-06-18T06:19:12.129Z,13.70
2017-06-18T06:21:41.151Z,12.60
2017-06-18T06:24:09.419Z,14.50
2017-06-18T06:26:37.747Z,13.90
2017-06-18T06:29:06.009Z,13.07
2017-06-18T06:31:34.339Z,13.33
2017-06-18T06:34:02.609Z,13.70
2017-06-18T06:36:31.613Z,12.80
2017-06-18T06:38:59.980Z,13.47
2017-06-18T06:41:28.203Z,13.23
2017-06-18T06:43:56.568Z,12.77
2017-06-18T06:46:25.125Z,13.27
2017-06-18T06:48:53.582Z,12.10
2017-06-18T06:51:21.810Z,13.00
2017-06-18T06:53:50.112Z,13.80
2017-06-18T06:56:18.399Z,13.17
2017-06-18T06:58:46.656Z,11.47
2017-06-18T07:01:15.009Z,8.80
2017-06-18T07:03:43.387Z,8.17
2017-06-18T07:06:11.629Z,11.60
2017-06-18T07:08:39.953Z,9.00
2017-06-18T07:11:08.208Z,8.30
2017-06-18T07:13:37.109Z,7.50
2017-06-18T07:16:05.364Z,7.30
2017-06-18T07:18:33.700Z,7.13
2017-06-18T07:21:01.928Z,6.90
2017-06-18T07:23:30.194Z,6.97
2017-06-18T07:25:58.432Z,8.00
2017-06-18T07:28:27.476Z,7.50
2017-06-18T07:30:55.734Z,8.33
2017-06-18T07:33:24.024Z,7.80
2017-06-18T07:35:52.266Z,6.70
2017-06-18T07:38:21.271Z,6.63
2017-06-18T07:40:49.544Z,6.60
2017-06-18T07:43:17.814Z,7.20
2017-06-18T07:45:46.802Z,7.67
2017-06-18T07:48:15.824Z,7.63
2017-06-18T07:50:44.080Z,6.37
2017-06-18T07:53:13.081Z,5.87
2017-06-18T07:55:41.323Z,5.50
2017-06-18T07:58:09.699Z,4.87
2017-06-18T08:00:38.717Z,5.13
2017-06-18T08:03:07.017Z,6.50
2017-06-18T08:05:35.393Z,6.63
2017-06-18T08:08:03.631Z,5.60
2017-06-18T08:10:32.649Z,6.30
2017-06-18T08:13:00.941Z,5.80
2017-06-18T08:15:29.205Z,6.10
2017-06-18T08:17:57.489Z,5.27
2017-06-18T08:20:25.733Z,5.07
2017-06-18T08:22:53.968Z,4.43
2017-06-18T08:25:22.217Z,4.30
2017-06-18T08:27:50.494Z,4.40
2017-06-18T08:30:18.769Z,4.10
2017-06-18T08:32:47.145Z,4.30
2017-06-18T08:35:15.419Z,3.63
2017-06-18T08:37:43.748Z,4.20
2017-06-18T08:40:12.108Z,4.20
2017-06-18T08:42:40.463Z,3.80
2017-06-18T08:45:08.746Z,5.60
2017-06-18T08:47:37.069Z,4.93
2017-06-18T08:50:06.073Z,5.37
2017-06-18T08:52:34.337Z,5.03
2017-06-18T08:55:03.331Z,4.73
2017-06-18T08:57:32.346Z,5.73
2017-06-18T09:00:00.589Z,4.63
2017-06-18T09:02:29.609Z,5.93
2017-06-18T09:04:57.901Z,5.90
2017-06-18T09:07:26.232Z,5.70
2017-06-18T09:09:55.250Z,6.40
2017-06-18T09:12:23.516Z,5.93
2017-06-18T09:14:52.785Z,5.97
2017-06-18T09:17:21.021Z,6.40
2017-06-18T09:19:49.264Z,5.17
2017-06-18T09:22:17.628Z,5.63
2017-06-18T09:24:46.663Z,5.23
2017-06-18T09:27:14.901Z,5.20
2017-06-18T09:29:44.043Z,5.10
2017-06-18T09:32:12.329Z,4.77
2017-06-18T09:34:40.597Z,4.90
2017-06-18T09:37:08.865Z,4.50
2017-06-18T09:39:37.129Z,4.20
2017-06-18T09:42:05.373Z,3.70
2017-06-18T09:44:34.380Z,3.67
2017-06-18T09:47:02.633Z,3.57
2017-06-18T09:49:32.272Z,2.90
2017-06-18T09:52:00.566Z,2.83
2017-06-18T09:54:28.829Z,4.43
2017-06-18T09:56:57.142Z,4.70
2017-06-18T09:59:25.403Z,4.47
2017-06-18T10:01:53.879Z,4.40
2017-06-18T10:04:22.118Z,4.07
2017-06-18T10:06:50.832Z,4.90
2017-06-18T10:09:19.073Z,4.00
2017-06-18T10:11:47.381Z,3.67
2017-06-18T10:14:15.649Z,3.73
2017-06-18T10:16:43.904Z,3.93
2017-06-18T10:19:12.225Z,3.63
2017-06-18T10:21:58.317Z,3.83
2017-06-18T10:24:26.550Z,2.80
2017-06-18T10:26:54.853Z,3.33
2017-06-18T10:29:23.081Z,3.50
2017-06-18T10:31:52.077Z,3.30
2017-06-18T10:34:21.156Z,3.60
2017-06-18T10:36:49.535Z,3.00
2017-06-18T10:39:17.789Z,3.67
2017-06-18T10:41:46.021Z,2.97
2017-06-18T10:44:14.284Z,3.47
2017-06-18T10:46:42.609Z,2.87
2017-06-18T10:49:10.861Z,2.50
2017-06-18T10:51:39.198Z,2.70
2017-06-18T10:54:07.523Z,2.97
2017-06-18T10:56:35.779Z,3.67
2017-06-18T10:59:04.021Z,3.20
2017-06-18T11:01:33.110Z,3.83
2017-06-18T11:04:02.175Z,3.10
2017-06-18T11:06:30.409Z,2.97
2017-06-18T11:08:58.644Z,3.73
2017-06-18T11:11:26.991Z,3.60
2017-06-18T11:13:55.231Z,3.40
2017-06-18T11:16:23.581Z,3.50
2017-06-18T11:18:52.604Z,3.43
2017-06-18T11:21:20.918Z,3.13
2017-06-18T11:23:49.161Z,3.37
2017-06-18T11:26:17.425Z,3.30
2017-06-18T11:28:45.674Z,3.40
2017-06-18T11:31:13.924Z,3.30
2017-06-18T11:33:42.156Z,3.60
2017-06-18T11:36:10.989Z,2.90
2017-06-18T11:38:39.229Z,3.73
2017-06-18T11:41:07.480Z,3.50
2017-06-18T11:43:35.788Z,3.10
2017-06-18T11:46:04.060Z,3.33
2017-06-18T11:48:32.396Z,3.00
2017-06-18T11:51:01.485Z,2.50
2017-06-18T11:53:29.769Z,2.80
2017-06-18T11:55:58.941Z,3.20
2017-06-18T11:58:27.173Z,2.77
2017-06-18T12:00:55.409Z,2.83
2017-06-18T12:03:24.526Z,3.23
2017-06-18T12:05:52.775Z,3.10
2017-06-18T12:08:21.043Z,3.00
2017-06-18T12:10:49.595Z,3.53
2017-06-18T12:13:17.957Z,3.60
2017-06-18T12:15:46.204Z,3.57
2017-06-18T12:18:15.240Z,3.50
2017-06-18T12:20:43.610Z,2.60
2017-06-18T12:23:11.883Z,2.20
2017-06-18T12:28:14.701Z,2.73
2017-06-18T12:30:42.941Z,2.20
2017-06-18T12:33:11.180Z,2.60
2017-06-18T12:35:40.198Z,2.80
2017-06-18T12:38:08.465Z,2.93
2017-06-18T12:40:36.815Z,2.53
2017-06-18T12:43:05.044Z,1.90
2017-06-18T12:45:33.313Z,2.20
2017-06-18T12:48:01.566Z,2.70
2017-06-18T12:50:30.738Z,2.40
2017-06-18T12:52:58.954Z,2.60
2017-06-18T12:55:27.213Z,2.60
2017-06-18T12:57:55.930Z,2.70
2017-06-18T13:00:24.246Z,2.47
2017-06-18T13:02:52.477Z,2.60
2017-06-18T13:05:20.754Z,2.77
2017-06-18T13:07:49.057Z,2.30
2017-06-18T13:10:17.306Z,2.30
2017-06-18T13:12:45.573Z,2.70
2017-06-18T13:15:13.860Z,2.50
2017-06-18T13:17:42.132Z,2.73
2017-06-18T13:20:10.354Z,2.80
2017-06-18T13:22:38.686Z,2.70
2017-06-18T13:25:06.927Z,2.50
2017-06-18T13:27:35.950Z,2.73
2017-06-18T13:30:04.222Z,2.73
2017-06-18T13:32:32.477Z,2.63
2017-06-18T13:35:00.728Z,2.40
2017-06-18T13:37:29.759Z,2.60
2017-06-18T13:40:03.609Z,2.30
2017-06-18T13:42:32.689Z,2.67
2017-06-18T13:45:00.954Z,2.73
2017-06-18T13:47:29.217Z,1.97
2017-06-18T13:49:57.512Z,1.83
2017-06-18T13:52:25.746Z,2.03
2017-06-18T13:54:54.052Z,2.70
2017-06-18T13:57:22.381Z,2.53
2017-06-18T13:59:51.397Z,3.40
2017-06-18T14:02:19.642Z,3.33
2017-06-18T14:04:47.900Z,8.97
2017-06-18T14:07:16.250Z,5.03
2017-06-18T14:09:44.501Z,2.97
2017-06-18T14:12:12.795Z,2.77
2017-06-18T14:14:41.125Z,2.03
2017-06-18T14:17:10.238Z,2.60
2017-06-18T14:19:38.509Z,2.60
2017-06-18T14:22:06.970Z,2.20
2017-06-18T14:24:35.220Z,3.00
2017-06-18T14:27:03.524Z,2.70
2017-06-18T14:29:31.797Z,2.90
2017-06-18T14:32:00.807Z,3.10
2017-06-18T14:34:29.822Z,3.10
2017-06-18T14:36:58.317Z,2.43
2017-06-18T14:39:26.593Z,2.87
2017-06-18T14:41:54.869Z,3.27
2017-06-18T14:44:23.102Z,2.80
2017-06-18T14:46:52.139Z,2.93
2017-06-18T14:49:20.459Z,3.07
2017-06-18T14:51:48.707Z,2.80
2017-06-18T14:54:16.938Z,2.80
2017-06-18T14:56:45.241Z,2.60
2017-06-18T14:59:13.548Z,2.57
2017-06-18T15:01:41.887Z,2.53
2017-06-18T15:04:10.164Z,2.87
2017-06-18T15:06:38.492Z,2.60
2017-06-18T15:09:06.734Z,2.87
2017-06-18T15:11:34.994Z,3.10
2017-06-18T15:14:03.252Z,2.90
2017-06-18T15:16:31.504Z,3.27
2017-06-18T15:19:00.526Z,2.30
2017-06-18T15:21:28.782Z,3.27
2017-06-18T15:23:57.145Z,2.93
2017-06-18T15:26:26.149Z,3.00
2017-06-18T15:28:54.453Z,2.93
2017-06-18T15:31:22.749Z,2.90
2017-06-18T15:33:51.002Z,2.60
2017-06-18T15:36:19.248Z,3.13
2017-06-18T15:38:47.557Z,3.40
2017-06-18T15:41:15.832Z,2.80
2017-06-18T15:43:44.168Z,2.80
2017-06-18T15:46:13.177Z,2.70
2017-06-18T15:48:41.415Z,2.77
2017-06-18T15:51:09.793Z,3.00
2017-06-18T15:53:38.031Z,3.53
2017-06-18T15:56:06.272Z,2.80
2017-06-18T15:58:34.572Z,2.83
2017-06-18T16:01:02.821Z,3.00
2017-06-18T16:03:31.130Z,5.17
2017-06-18T16:05:59.381Z,2.57
2017-06-18T16:08:27.633Z,2.70
2017-06-18T16:10:56.667Z,2.97
2017-06-18T16:13:24.943Z,2.27
2017-06-18T16:15:53.201Z,2.43
2017-06-18T16:18:21.498Z,2.80
2017-06-18T16:20:49.745Z,3.57
2017-06-18T16:23:18.090Z,2.87
2017-06-18T16:25:47.114Z,2.40
2017-06-18T16:28:15.373Z,2.50
2017-06-18T16:30:44.459Z,2.80
2017-06-18T16:33:12.681Z,3.37
2017-06-18T16:35:40.959Z,2.57
2017-06-18T16:38:09.214Z,2.63
2017-06-18T16:40:37.482Z,2.63
2017-06-18T16:43:06.610Z,2.50
2017-06-18T16:45:34.897Z,3.57
2017-06-18T16:48:03.169Z,3.23
2017-06-18T16:50:31.578Z,2.60
2017-06-18T16:52:59.848Z,3.30
2017-06-18T16:55:28.141Z,3.93
2017-06-18T16:57:57.249Z,3.20
2017-06-18T17:00:26.272Z,2.53
2017-06-18T17:02:54.513Z,3.00
2017-06-18T17:05:23.532Z,2.50
2017-06-18T17:07:51.824Z,2.67
2017-06-18T17:10:20.091Z,3.33
2017-06-18T17:12:48.321Z,3.03
2017-06-18T17:15:17.461Z,2.77
2017-06-18T17:17:45.701Z,2.50
2017-06-18T17:20:14.726Z,2.83
2017-06-18T17:22:43.013Z,2.77
2017-06-18T17:25:11.261Z,2.80
2017-06-18T17:27:39.510Z,3.00
2017-06-18T17:30:08.550Z,3.10
2017-06-18T17:32:36.785Z,2.70
2017-06-18T17:35:05.834Z,3.17
2017-06-18T17:37:34.065Z,2.80
2017-06-18T17:40:02.318Z,2.97
2017-06-18T17:42:30.545Z,2.70
2017-06-18T17:44:58.802Z,2.80
2017-06-18T17:47:27.051Z,3.17
2017-06-18T17:49:56.090Z,2.90
2017-06-18T17:52:24.868Z,3.10
2017-06-18T17:54:53.190Z,3.40
2017-06-18T17:57:21.545Z,3.17
2017-06-18T17:59:49.803Z,3.20
2017-06-18T18:02:18.063Z,3.00
2017-06-18T18:04:46.356Z,2.90
2017-06-18T18:07:14.687Z,3.33
2017-06-18T18:09:43.770Z,3.17
2017-06-18T18:12:12.794Z,3.40
2017-06-18T18:14:41.066Z,2.77
2017-06-18T18:17:09.314Z,3.30
2017-06-18T18:19:37.594Z,3.60
2017-06-18T18:22:05.859Z,3.70
2017-06-18T18:24:34.090Z,4.13
2017-06-18T18:27:02.324Z,3.60
2017-06-18T18:29:31.339Z,4.17
2017-06-18T18:31:59.597Z,5.00
2017-06-18T18:34:27.911Z,7.50
2017-06-18T18:36:56.145Z,4.43
2017-06-18T18:39:25.171Z,4.80
2017-06-18T18:41:53.428Z,3.60
2017-06-18T18:44:22.449Z,3.80
2017-06-18T18:46:50.680Z,3.20
2017-06-18T18:49:19.718Z,3.60
2017-06-18T18:51:47.977Z,2.93
2017-06-18T18:54:16.220Z,3.23
2017-06-18T18:56:45.254Z,3.03
2017-06-18T18:59:13.497Z,3.30
2017-06-18T19:01:42.517Z,3.33
2017-06-18T19:04:10.781Z,3.37
2017-06-18T19:06:39.037Z,3.30
2017-06-18T19:09:08.048Z,3.30
2017-06-18T19:11:36.319Z,3.23
2017-06-18T19:14:04.559Z,3.03
2017-06-18T19:16:32.824Z,3.03
2017-06-18T19:19:01.131Z,2.87
2017-06-18T19:21:30.171Z,3.30
2017-06-18T19:23:58.422Z,3.20
2017-06-18T19:26:26.684Z,3.30
2017-06-18T19:28:55.738Z,3.00
2017-06-18T19:31:24.009Z,3.40
2017-06-18T19:33:52.253Z,3.67
2017-06-18T19:36:20.549Z,3.50
2017-06-18T19:38:48.817Z,3.30
2017-06-18T19:41:17.184Z,3.43
2017-06-18T19:43:45.420Z,3.53
2017-06-18T19:46:14.886Z,4.20
2017-06-18T19:48:43.144Z,4.17
2017-06-18T19:51:11.385Z,3.70
2017-06-18T19:53:39.752Z,3.60
2017-06-18T19:56:08.757Z,3.80
2017-06-18T19:58:37.037Z,3.67
2017-06-18T20:01:05.345Z,3.60
2017-06-18T20:03:33.609Z,3.53
2017-06-18T20:06:01.856Z,4.00
2017-06-18T20:08:30.880Z,3.70
2017-06-18T20:10:59.207Z,3.97
2017-06-18T20:13:28.277Z,3.63
2017-06-18T20:15:56.525Z,4.10
2017-06-18T20:18:24.767Z,3.87
2017-06-18T20:20:53.801Z,3.70
2017-06-18T20:23:22.128Z,3.90
2017-06-18T20:25:51.143Z,3.50
2017-06-18T20:28:19.538Z,3.30
2017-06-18T20:30:47.784Z,3.87
2017-06-18T20:33:16.825Z,5.37
2017-06-18T20:35:45.080Z,3.47
2017-06-18T20:38:13.423Z,4.03
2017-06-18T20:40:42.552Z,3.97
2017-06-18T20:43:10.801Z,3.90
2017-06-18T20:45:39.860Z,3.83
2017-06-18T20:48:08.217Z,4.80
2017-06-18T20:50:36.454Z,4.60
2017-06-18T20:53:04.713Z,4.10
2017-06-18T20:55:33.717Z,4.70
2017-06-18T20:58:02.020Z,4.43
2017-06-18T21:00:30.265Z,4.00
2017-06-18T21:02:59.408Z,6.60
2017-06-18T21:05:27.646Z,6.70
2017-06-18T21:07:55.903Z,4.90
2017-06-18T21:10:24.921Z,4.60
2017-06-18T21:12:54.026Z,4.43
2017-06-18T21:15:22.273Z,4.07
2017-06-18T21:17:51.397Z,4.90
2017-06-18T21:20:19.777Z,4.40
2017-06-18T21:22:48.023Z,4.23
2017-06-18T21:25:17.030Z,4.47
2017-06-18T21:27:45.283Z,4.40
2017-06-18T21:30:14.332Z,4.70
2017-06-18T21:32:42.793Z,4.80
2017-06-18T21:35:11.075Z,5.20
2017-06-18T21:37:39.323Z,5.23
2017-06-18T21:40:07.581Z,5.50
2017-06-18T21:42:36.595Z,5.00
2017-06-18T21:45:04.851Z,5.40
2017-06-18T21:47:33.855Z,4.77
2017-06-18T21:50:02.866Z,5.50
2017-06-18T21:52:31.106Z,6.07
2017-06-18T21:54:59.353Z,5.50
2017-06-18T21:57:27.617Z,5.53
2017-06-18T21:59:55.910Z,5.83
2017-06-18T22:02:24.164Z,5.03
2017-06-18T22:04:52.392Z,4.83
2017-06-18T22:07:21.549Z,5.50
2017-06-18T22:09:49.781Z,4.80
2017-06-18T22:12:18.067Z,4.73
2017-06-18T22:14:46.305Z,5.10
2017-06-18T22:17:15.325Z,5.60
2017-06-18T22:19:43.568Z,5.00
2017-06-18T22:22:12.719Z,5.17
2017-06-18T22:24:40.948Z,4.87
2017-06-18T22:27:10.073Z,4.90
2017-06-18T22:29:38.325Z,5.10
2017-06-18T22:32:06.590Z,5.07
2017-06-18T22:34:35.597Z,5.10
2017-06-18T22:37:03.900Z,5.80
2017-06-18T22:39:32.129Z,5.07
2017-06-18T22:42:01.315Z,4.67
2017-06-18T22:44:29.537Z,4.90
2017-06-18T22:46:57.921Z,4.53
2017-06-18T22:49:26.220Z,5.20
2017-06-18T22:51:54.536Z,6.13
2017-06-18T22:54:23.669Z,5.83
2017-06-18T22:56:51.909Z,6.10
2017-06-18T22:59:20.159Z,5.97
2017-06-18T23:01:48.393Z,6.17
2017-06-18T23:04:16.651Z,6.60
2017-06-18T23:06:44.887Z,5.20
2017-06-18T23:09:13.137Z,4.87
2017-06-18T23:11:41.421Z,4.80
2017-06-18T23:14:09.669Z,4.30
2017-06-18T23:16:37.905Z,4.60
2017-06-18T23:19:06.936Z,4.53
2017-06-18T23:21:35.261Z,4.40
2017-06-18T23:24:03.502Z,4.40
2017-06-18T23:26:31.748Z,4.50
2017-06-18T23:29:00.089Z,4.23
2017-06-18T23:31:28.348Z,4.23
2017-06-18T23:33:56.674Z,5.33
2017-06-18T23:36:24.933Z,4.47
2017-06-18T23:38:53.993Z,4.23
2017-06-18T23:41:22.244Z,4.80
2017-06-18T23:43:50.515Z,4.13
2017-06-18T23:46:18.765Z,4.70
2017-06-18T23:48:47.043Z,5.70
2017-06-18T23:51:15.319Z,5.77
2017-06-18T23:53:43.630Z,4.50
2017-06-18T23:56:11.890Z,5.33
2017-06-18T23:58:40.146Z,4.67
